createdAt,value
2019-05-21T00:00:25.090Z,97332.12
2019-05-21T00:01:29.946Z,97325.09
2019-05-21T00:02:36.359Z,97324.16
2019-05-21T00:03:38.377Z,97314.67
2019-05-21T00:04:42.908Z,97315.41
2019-05-21T00:05:47.225Z,97317.33
2019-05-21T00:06:49.616Z,97316.56
2019-05-21T00:07:52.753Z,97314.73
2019-05-21T00:08:55.363Z,97314.80
2019-05-21T00:09:57.171Z,97318.20
2019-05-21T00:11:01.192Z,97317.77
2019-05-21T00:12:04.262Z,97312.04
2019-05-21T00:13:07.313Z,97315.69
2019-05-21T00:14:10.911Z,97314.41
2019-05-21T00:15:14.802Z,97319.23
2019-05-21T00:16:17.370Z,97313.77
2019-05-21T00:17:20.547Z,97317.43
2019-05-21T00:18:23.450Z,97325.13
2019-05-21T00:19:27.007Z,97327.47
2019-05-21T00:20:29.677Z,97323.55
2019-05-21T00:21:32.153Z,97324.52
2019-05-21T00:22:34.514Z,97327.20
2019-05-21T00:23:37.588Z,97326.06
2019-05-21T00:24:39.600Z,97328.14
2019-05-21T00:25:44.666Z,97328.17
2019-05-21T00:26:48.108Z,97326.72
2019-05-21T00:27:50.111Z,97325.55
2019-05-21T00:29:52.653Z,97326.29
2019-05-21T00:31:51.281Z,97332.31
2019-05-21T00:33:50.056Z,97333.19
2019-05-21T00:35:51.493Z,97328.34
2019-05-21T00:37:33.836Z,97323.29
2019-05-21T00:39:35.016Z,97324.73
2019-05-21T00:41:35.833Z,97325.55
2019-05-21T00:42:42.986Z,97326.29
2019-05-21T00:43:49.394Z,97322.22
2019-05-21T00:44:52.552Z,97327.73
2019-05-21T00:45:55.552Z,97328.91
2019-05-21T00:46:58.724Z,97321.65
2019-05-21T00:48:01.433Z,97328.23
2019-05-21T00:49:04.762Z,97328.09
2019-05-21T00:50:08.246Z,97328.72
2019-05-21T00:51:10.462Z,97329.73
2019-05-21T00:52:12.663Z,97327.09
2019-05-21T00:53:15.322Z,97331.03
2019-05-21T00:54:17.326Z,97328.05
2019-05-21T00:55:19.814Z,97328.55
2019-05-21T00:56:22.756Z,97332.38
2019-05-21T00:57:27.033Z,97324.72
2019-05-21T00:58:29.060Z,97324.14
2019-05-21T00:59:31.701Z,97327.36
2019-05-21T01:00:34.522Z,97323.69
2019-05-21T01:01:38.966Z,97321.67
2019-05-21T01:02:41.973Z,97320.80
2019-05-21T01:03:45.378Z,97322.77
2019-05-21T01:05:00.428Z,97311.94
2019-05-21T01:05:52.649Z,97314.17
2019-05-21T01:06:54.765Z,97311.61
2019-05-21T01:07:59.600Z,97312.77
2019-05-21T01:09:04.200Z,97309.73
2019-05-21T01:10:08.161Z,97313.52
2019-05-21T01:11:10.740Z,97312.84
2019-05-21T01:12:13.983Z,97314.88
2019-05-21T01:13:17.098Z,97309.06
2019-05-21T01:14:19.444Z,97310.13
2019-05-21T01:15:24.007Z,97311.18
2019-05-21T01:16:26.823Z,97306.55
2019-05-21T01:17:29.240Z,97306.81
2019-05-21T01:18:32.144Z,97307.30
2019-05-21T01:19:34.923Z,97306.19
2019-05-21T01:20:37.218Z,97304.30
2019-05-21T01:21:39.105Z,97306.35
2019-05-21T01:22:43.783Z,97303.58
2019-05-21T01:23:45.980Z,97307.36
2019-05-21T01:24:47.688Z,97304.84
2019-05-21T01:25:49.947Z,97309.13
2019-05-21T01:26:52.339Z,97302.34
2019-05-21T01:27:54.835Z,97308.73
2019-05-21T01:28:58.391Z,97311.06
2019-05-21T01:30:00.541Z,97309.70
2019-05-21T01:31:02.540Z,97310.70
2019-05-21T01:32:05.014Z,97312.88
2019-05-21T01:33:06.937Z,97308.88
2019-05-21T01:34:11.520Z,97312.14
2019-05-21T01:35:17.079Z,97310.32
2019-05-21T01:36:18.885Z,97309.06
2019-05-21T01:37:20.611Z,97309.00
2019-05-21T01:38:23.065Z,97308.30
2019-05-21T01:39:27.755Z,97309.69
2019-05-21T01:40:29.502Z,97298.42
2019-05-21T01:41:32.081Z,97302.98
2019-05-21T01:42:34.661Z,97298.75
2019-05-21T01:43:36.814Z,97304.09
2019-05-21T01:44:39.389Z,97304.59
2019-05-21T01:45:41.802Z,97299.82
2019-05-21T01:46:44.277Z,97295.46
2019-05-21T01:47:46.580Z,97299.31
2019-05-21T01:48:50.031Z,97305.09
2019-05-21T01:49:52.432Z,97296.17
2019-05-21T01:50:55.022Z,97295.09
2019-05-21T01:51:57.580Z,97289.67
2019-05-21T01:53:00.025Z,97292.25
2019-05-21T01:54:02.965Z,97289.61
2019-05-21T01:55:06.804Z,97292.12
2019-05-21T01:56:10.222Z,97293.31
2019-05-21T01:57:13.155Z,97295.16
2019-05-21T01:58:16.590Z,97298.47
2019-05-21T01:59:19.176Z,97298.16
2019-05-21T02:00:22.149Z,97298.41
2019-05-21T02:01:24.448Z,97298.05
2019-05-21T02:02:29.541Z,97305.53
2019-05-21T02:03:33.403Z,97311.13
2019-05-21T02:04:37.956Z,97306.05
2019-05-21T02:05:40.478Z,97314.91
2019-05-21T02:06:42.238Z,97306.41
2019-05-21T02:07:44.866Z,97309.52
2019-05-21T02:08:47.328Z,97309.45
2019-05-21T02:09:59.906Z,97305.64
2019-05-21T02:11:02.763Z,97306.80
2019-05-21T02:12:05.696Z,97304.74
2019-05-21T02:13:08.468Z,97302.37
2019-05-21T02:14:11.035Z,97298.65
2019-05-21T02:15:14.344Z,97295.36
2019-05-21T02:16:16.746Z,97299.69
2019-05-21T02:17:19.084Z,97299.35
2019-05-21T02:18:21.899Z,97299.94
2019-05-21T02:19:23.586Z,97299.23
2019-05-21T02:20:26.155Z,97303.26
2019-05-21T02:21:31.104Z,97304.83
2019-05-21T02:22:33.980Z,97310.22
2019-05-21T02:23:36.442Z,97307.64
2019-05-21T02:24:38.487Z,97308.34
2019-05-21T02:25:41.783Z,97307.92
2019-05-21T02:26:44.525Z,97303.00
2019-05-21T02:27:48.835Z,97306.50
2019-05-21T02:28:52.093Z,97308.70
2019-05-21T02:29:54.712Z,97310.22
2019-05-21T02:30:58.476Z,97309.19
2019-05-21T02:32:00.763Z,97309.06
2019-05-21T02:33:03.854Z,97312.37
2019-05-21T02:34:06.510Z,97305.16
2019-05-21T02:35:11.845Z,97305.06
2019-05-21T02:36:14.025Z,97306.16
2019-05-21T02:37:17.714Z,97303.41
2019-05-21T02:38:20.553Z,97308.06
2019-05-21T02:39:22.731Z,97302.16
2019-05-21T02:40:26.074Z,97310.81
2019-05-21T02:41:28.789Z,97306.73
2019-05-21T02:42:31.154Z,97307.98
2019-05-21T02:43:33.740Z,97311.84
2019-05-21T02:44:36.326Z,97311.50
2019-05-21T02:45:39.179Z,97316.71
2019-05-21T02:46:42.199Z,97313.23
2019-05-21T02:47:46.257Z,97315.02
2019-05-21T02:48:50.371Z,97308.98
2019-05-21T02:49:54.851Z,97311.17
2019-05-21T02:50:57.131Z,97310.92
2019-05-21T02:52:01.848Z,97309.11
2019-05-21T02:53:04.777Z,97310.68
2019-05-21T02:54:07.387Z,97312.68
2019-05-21T02:55:12.288Z,97309.23
2019-05-21T02:56:19.909Z,97310.19
2019-05-21T02:57:27.942Z,97312.70
2019-05-21T02:58:30.213Z,97314.98
2019-05-21T02:59:34.711Z,97308.92
2019-05-21T03:00:51.629Z,97312.34
2019-05-21T03:01:58.997Z,97308.24
2019-05-21T03:03:09.931Z,97306.70
2019-05-21T03:04:12.824Z,97314.98
2019-05-21T03:05:16.815Z,97311.23
2019-05-21T03:06:19.058Z,97314.89
2019-05-21T03:07:25.628Z,97309.14
2019-05-21T03:08:30.850Z,97309.91
2019-05-21T03:09:35.554Z,97313.28
2019-05-21T03:10:38.716Z,97311.66
2019-05-21T03:11:41.559Z,97310.09
2019-05-21T03:12:44.381Z,97314.68
2019-05-21T03:13:46.849Z,97312.46
2019-05-21T03:14:51.768Z,97305.30
2019-05-21T03:15:53.616Z,97311.91
2019-05-21T03:16:57.410Z,97304.69
2019-05-21T03:18:00.034Z,97306.50
2019-05-21T03:19:02.845Z,97300.05
2019-05-21T03:20:07.451Z,97302.87
2019-05-21T03:21:10.311Z,97297.88
2019-05-21T03:22:12.051Z,97301.55
2019-05-21T03:23:14.727Z,97294.87
2019-05-21T03:24:16.954Z,97305.09
2019-05-21T03:25:19.487Z,97302.29
2019-05-21T03:26:23.229Z,97301.98
2019-05-21T03:27:25.564Z,97304.80
2019-05-21T03:28:27.863Z,97299.03
2019-05-21T03:29:32.373Z,97308.64
2019-05-21T03:30:35.233Z,97303.50
2019-05-21T03:31:38.034Z,97302.36
2019-05-21T03:32:40.521Z,97302.34
2019-05-21T03:33:43.091Z,97308.34
2019-05-21T03:34:45.958Z,97302.39
2019-05-21T03:35:49.166Z,97305.03
2019-05-21T03:36:52.376Z,97307.63
2019-05-21T03:37:56.478Z,97303.91
2019-05-21T03:38:59.215Z,97305.66
2019-05-21T03:40:01.294Z,97307.97
2019-05-21T03:41:03.741Z,97307.20
2019-05-21T03:42:13.358Z,97313.72
2019-05-21T03:43:17.140Z,97310.31
2019-05-21T03:44:23.613Z,97312.09
2019-05-21T03:45:26.397Z,97308.83
2019-05-21T03:46:29.866Z,97307.91
2019-05-21T03:47:33.661Z,97307.08
2019-05-21T03:48:36.455Z,97304.16
2019-05-21T03:49:39.926Z,97306.19
2019-05-21T03:50:42.997Z,97304.50
2019-05-21T03:51:44.950Z,97296.86
2019-05-21T03:52:47.491Z,97300.58
2019-05-21T03:53:49.806Z,97289.05
2019-05-21T03:54:52.625Z,97291.81
2019-05-21T03:55:55.304Z,97288.92
2019-05-21T03:56:57.823Z,97293.30
2019-05-21T03:58:00.385Z,97293.69
2019-05-21T03:59:03.391Z,97294.39
2019-05-21T04:00:08.134Z,97288.34
2019-05-21T04:01:09.929Z,97291.05
2019-05-21T04:02:12.694Z,97287.13
2019-05-21T04:03:15.072Z,97292.24
2019-05-21T04:04:20.970Z,97289.33
2019-05-21T04:05:24.682Z,97293.56
2019-05-21T04:06:28.970Z,97285.16
2019-05-21T04:07:30.903Z,97286.94
2019-05-21T04:08:33.507Z,97282.33
2019-05-21T04:09:36.679Z,97290.27
2019-05-21T04:10:39.871Z,97283.55
2019-05-21T04:11:43.957Z,97282.10
2019-05-21T04:12:47.857Z,97284.09
2019-05-21T04:13:51.917Z,97281.63
2019-05-21T04:14:56.779Z,97286.03
2019-05-21T04:16:13.955Z,97288.20
2019-05-21T04:17:34.565Z,97285.66
2019-05-21T04:18:42.968Z,97290.31
2019-05-21T04:19:46.482Z,97290.00
2019-05-21T04:20:49.603Z,97285.42
2019-05-21T04:21:54.543Z,97282.84
2019-05-21T04:22:57.452Z,97294.52
2019-05-21T04:24:01.519Z,97291.88
2019-05-21T04:25:05.023Z,97289.96
2019-05-21T04:26:07.727Z,97291.81
2019-05-21T04:27:10.880Z,97289.47
2019-05-21T04:28:14.183Z,97292.73
2019-05-21T04:29:17.710Z,97291.23
2019-05-21T04:30:20.997Z,97292.91
2019-05-21T04:31:23.824Z,97292.73
2019-05-21T04:32:26.464Z,97293.75
2019-05-21T04:33:28.110Z,97293.26
2019-05-21T04:34:30.660Z,97295.38
2019-05-21T04:35:33.552Z,97298.98
2019-05-21T04:36:36.065Z,97296.61
2019-05-21T04:37:39.143Z,97295.72
2019-05-21T04:38:41.769Z,97296.80
2019-05-21T04:39:44.453Z,97296.03
2019-05-21T04:40:48.839Z,97298.37
2019-05-21T04:41:51.366Z,97289.59
2019-05-21T04:42:54.149Z,97295.97
2019-05-21T04:43:57.237Z,97298.37
2019-05-21T04:45:00.089Z,97298.72
2019-05-21T04:46:02.373Z,97296.42
2019-05-21T04:47:05.060Z,97294.81
2019-05-21T04:48:09.034Z,97299.64
2019-05-21T04:49:11.695Z,97300.09
2019-05-21T04:50:14.709Z,97301.19
2019-05-21T04:51:17.658Z,97291.37
2019-05-21T04:52:19.811Z,97296.78
2019-05-21T04:53:22.815Z,97298.98
2019-05-21T04:54:24.859Z,97297.23
2019-05-21T04:55:27.493Z,97299.15
2019-05-21T04:56:29.882Z,97298.13
2019-05-21T04:57:32.536Z,97297.88
2019-05-21T04:58:35.524Z,97302.63
2019-05-21T04:59:38.084Z,97304.50
2019-05-21T05:00:40.080Z,97298.02
2019-05-21T05:01:42.999Z,97301.02
2019-05-21T05:02:45.621Z,97298.60
2019-05-21T05:03:49.209Z,97299.27
2019-05-21T05:04:52.152Z,97299.09
2019-05-21T05:05:54.850Z,97303.13
2019-05-21T05:06:57.782Z,97295.55
2019-05-21T05:08:00.142Z,97298.53
2019-05-21T05:09:04.981Z,97296.69
2019-05-21T05:10:08.757Z,97301.20
2019-05-21T05:11:11.690Z,97294.45
2019-05-21T05:14:21.107Z,97307.28
2019-05-21T05:15:25.107Z,97311.89
2019-05-21T05:16:27.800Z,97308.84
2019-05-21T05:17:30.629Z,97306.01
2019-05-21T05:18:33.376Z,97306.50
2019-05-21T05:19:35.750Z,97309.92
2019-05-21T05:20:39.127Z,97310.05
2019-05-21T05:21:43.685Z,97301.06
2019-05-21T05:22:48.456Z,97305.84
2019-05-21T05:23:50.856Z,97296.78
2019-05-21T05:24:53.174Z,97303.39
2019-05-21T05:25:57.793Z,97305.09
2019-05-21T05:27:00.318Z,97297.64
2019-05-21T05:28:05.224Z,97303.89
2019-05-21T05:29:07.852Z,97298.17
2019-05-21T05:30:11.561Z,97304.91
2019-05-21T05:31:15.382Z,97300.03
2019-05-21T05:32:18.258Z,97302.87
2019-05-21T05:33:21.238Z,97303.17
2019-05-21T05:34:23.353Z,97300.70
2019-05-21T05:35:27.826Z,97297.97
2019-05-21T05:36:30.503Z,97306.61
2019-05-21T05:37:43.243Z,97301.95
2019-05-21T05:41:02.720Z,97304.88
2019-05-21T05:42:04.572Z,97298.27
2019-05-21T05:43:09.108Z,97293.11
2019-05-21T05:44:12.061Z,97296.78
2019-05-21T05:45:16.729Z,97292.77
2019-05-21T05:46:18.584Z,97293.71
2019-05-21T05:47:21.356Z,97293.83
2019-05-21T05:48:25.215Z,97292.50
2019-05-21T05:49:29.709Z,97297.58
2019-05-21T05:50:34.646Z,97297.28
2019-05-21T05:51:37.358Z,97300.34
2019-05-21T05:52:40.557Z,97291.67
2019-05-21T05:53:56.251Z,97292.97
2019-05-21T05:54:58.837Z,97293.70
2019-05-21T05:56:02.570Z,97297.64
2019-05-21T05:57:05.335Z,97295.45
2019-05-21T05:58:07.584Z,97290.32
2019-05-21T05:59:13.742Z,97293.20
2019-05-21T06:00:16.079Z,97293.00
2019-05-21T06:01:18.000Z,97293.72
2019-05-21T06:02:20.412Z,97295.26
2019-05-21T06:03:22.155Z,97295.76
2019-05-21T06:04:25.230Z,97298.00
2019-05-21T06:05:27.979Z,97296.36
2019-05-21T06:06:32.411Z,97298.38
2019-05-21T06:07:34.897Z,97296.48
2019-05-21T06:08:37.506Z,97293.41
2019-05-21T06:09:39.312Z,97294.23
2019-05-21T06:10:42.840Z,97290.28
2019-05-21T06:11:45.176Z,97291.30
2019-05-21T06:12:47.602Z,97293.23
2019-05-21T06:13:50.321Z,97293.55
2019-05-21T06:14:53.433Z,97292.33
2019-05-21T06:15:56.208Z,97288.83
2019-05-21T06:16:59.014Z,97298.91
2019-05-21T06:18:01.337Z,97289.71
2019-05-21T06:19:03.815Z,97292.77
2019-05-21T06:20:07.443Z,97291.89
2019-05-21T06:21:10.032Z,97293.02
2019-05-21T06:22:12.225Z,97291.28
2019-05-21T06:23:14.550Z,97287.71
2019-05-21T06:24:16.467Z,97287.93
2019-05-21T06:25:19.311Z,97283.14
2019-05-21T06:26:22.199Z,97285.61
2019-05-21T06:27:24.383Z,97285.02
2019-05-21T06:28:26.994Z,97283.90
2019-05-21T06:29:29.342Z,97275.31
2019-05-21T06:30:32.189Z,97274.91
2019-05-21T06:31:34.517Z,97269.81
2019-05-21T06:32:38.548Z,97270.77
2019-05-21T06:33:42.726Z,97274.54
2019-05-21T06:34:44.601Z,97270.58
2019-05-21T06:35:47.587Z,97269.33
2019-05-21T06:36:50.955Z,97267.03
2019-05-21T06:37:53.319Z,97268.38
2019-05-21T06:38:55.780Z,97269.59
2019-05-21T06:39:58.547Z,97262.95
2019-05-21T06:41:01.690Z,97267.13
2019-05-21T06:42:06.544Z,97263.67
2019-05-21T06:43:09.511Z,97266.64
2019-05-21T06:44:12.496Z,97266.78
2019-05-21T06:45:15.492Z,97266.94
2019-05-21T06:46:17.368Z,97261.93
2019-05-21T06:47:19.850Z,97258.59
2019-05-21T06:48:22.308Z,97261.05
2019-05-21T06:49:24.981Z,97262.77
2019-05-21T06:50:27.484Z,97264.08
2019-05-21T06:51:30.266Z,97265.91
2019-05-21T06:52:35.041Z,97265.20
2019-05-21T06:53:37.840Z,97261.90
2019-05-21T06:54:40.438Z,97263.84
2019-05-21T06:55:42.954Z,97263.91
2019-05-21T06:56:45.284Z,97260.88
2019-05-21T06:57:48.824Z,97261.52
2019-05-21T06:58:51.851Z,97257.03
2019-05-21T06:59:55.097Z,97258.15
2019-05-21T07:00:58.153Z,97258.33
2019-05-21T07:02:01.776Z,97256.56
2019-05-21T07:03:06.720Z,97253.42
2019-05-21T07:04:10.436Z,97252.27
2019-05-21T07:05:13.035Z,97256.52
2019-05-21T07:06:15.482Z,97250.33
2019-05-21T07:07:17.438Z,97255.23
2019-05-21T07:08:33.489Z,97249.20
2019-05-21T07:09:25.245Z,97257.20
2019-05-21T07:10:28.976Z,97253.42
2019-05-21T07:11:31.803Z,97254.85
2019-05-21T07:12:33.829Z,97253.48
2019-05-21T07:13:35.659Z,97254.80
2019-05-21T07:14:38.199Z,97251.58
2019-05-21T07:15:40.029Z,97249.30
2019-05-21T07:16:43.012Z,97252.37
2019-05-21T07:17:47.998Z,97252.52
2019-05-21T07:18:50.116Z,97244.79
2019-05-21T07:19:53.027Z,97254.01
2019-05-21T07:20:55.513Z,97251.08
2019-05-21T07:22:11.464Z,97254.74
2019-05-21T07:23:03.978Z,97252.01
2019-05-21T07:24:06.487Z,97251.67
2019-05-21T07:25:10.101Z,97254.83
2019-05-21T07:26:12.974Z,97254.91
2019-05-21T07:27:15.569Z,97257.59
2019-05-21T07:28:17.922Z,97252.84
2019-05-21T07:29:22.172Z,97247.14
2019-05-21T07:30:24.512Z,97248.90
2019-05-21T07:31:31.129Z,97251.88
2019-05-21T07:32:34.934Z,97254.19
2019-05-21T07:33:37.195Z,97252.59
2019-05-21T07:34:39.529Z,97248.28
2019-05-21T07:35:42.763Z,97253.08
2019-05-21T07:36:45.510Z,97254.47
2019-05-21T07:37:48.310Z,97250.98
2019-05-21T07:38:54.030Z,97252.30
2019-05-21T07:39:55.745Z,97252.18
2019-05-21T07:40:59.647Z,97246.07
2019-05-21T07:42:02.530Z,97249.54
2019-05-21T07:43:05.330Z,97246.12
2019-05-21T07:44:07.737Z,97247.27
2019-05-21T07:45:10.877Z,97245.95
2019-05-21T07:46:13.772Z,97241.73
2019-05-21T07:47:16.671Z,97242.96
2019-05-21T07:48:19.274Z,97238.71
2019-05-21T07:49:21.027Z,97244.98
2019-05-21T07:50:23.889Z,97238.55
2019-05-21T07:51:26.253Z,97235.98
2019-05-21T07:52:28.729Z,97243.66
2019-05-21T07:53:31.025Z,97240.45
2019-05-21T07:54:32.801Z,97237.08
2019-05-21T07:55:35.649Z,97241.81
2019-05-21T07:56:38.331Z,97235.66
2019-05-21T07:57:42.575Z,97235.14
2019-05-21T07:58:44.925Z,97236.91
2019-05-21T07:59:47.722Z,97233.12
2019-05-21T08:00:52.758Z,97237.34
2019-05-21T08:01:56.452Z,97234.08
2019-05-21T08:02:58.825Z,97225.23
2019-05-21T08:04:01.151Z,97227.52
2019-05-21T08:05:06.323Z,97226.16
2019-05-21T08:06:09.149Z,97218.93
2019-05-21T08:07:11.775Z,97220.36
2019-05-21T08:08:14.654Z,97218.28
2019-05-21T08:09:17.016Z,97215.78
2019-05-21T08:10:19.286Z,97211.47
2019-05-21T08:11:23.171Z,97208.67
2019-05-21T08:12:38.089Z,97203.59
2019-05-21T08:13:30.515Z,97198.81
2019-05-21T08:14:33.486Z,97197.20
2019-05-21T08:15:35.298Z,97205.19
2019-05-21T08:16:39.631Z,97207.28
2019-05-21T08:17:42.092Z,97212.14
2019-05-21T08:18:45.970Z,97209.80
2019-05-21T08:19:48.395Z,97214.73
2019-05-21T08:20:51.019Z,97201.16
2019-05-21T08:21:56.597Z,97208.05
2019-05-21T08:22:59.196Z,97213.95
2019-05-21T08:24:01.610Z,97214.02
2019-05-21T08:25:05.476Z,97204.60
2019-05-21T08:26:09.785Z,97201.63
2019-05-21T08:27:13.198Z,97199.95
2019-05-21T08:28:15.168Z,97202.98
2019-05-21T08:29:18.003Z,97196.48
2019-05-21T08:30:21.465Z,97198.40
2019-05-21T08:31:23.387Z,97198.40
2019-05-21T08:32:25.695Z,97194.00
2019-05-21T08:33:29.570Z,97198.23
2019-05-21T08:34:32.117Z,97197.70
2019-05-21T08:35:34.677Z,97186.78
2019-05-21T08:36:36.987Z,97187.98
2019-05-21T08:37:40.286Z,97195.77
2019-05-21T08:38:42.464Z,97179.64
2019-05-21T08:39:44.280Z,97184.69
2019-05-21T08:40:47.024Z,97191.61
2019-05-21T08:41:50.029Z,97192.82
2019-05-21T08:42:52.498Z,97192.73
2019-05-21T08:43:55.005Z,97187.03
2019-05-21T08:44:57.552Z,97184.93
2019-05-21T08:46:00.096Z,97184.27
2019-05-21T08:47:02.752Z,97184.31
2019-05-21T08:48:05.613Z,97178.92
2019-05-21T08:49:07.691Z,97175.84
2019-05-21T08:50:11.422Z,97181.23
2019-05-21T08:51:14.071Z,97176.44
2019-05-21T08:52:18.215Z,97167.61
2019-05-21T08:53:22.974Z,97159.56
2019-05-21T08:54:44.653Z,97169.77
2019-05-21T08:55:47.051Z,97167.61
2019-05-21T08:56:49.363Z,97175.66
2019-05-21T08:58:06.489Z,97176.91
2019-05-21T08:58:56.126Z,97180.48
2019-05-21T08:59:58.749Z,97187.91
2019-05-21T09:01:00.994Z,97176.38
2019-05-21T09:02:04.124Z,97173.01
2019-05-21T09:03:06.851Z,97166.69
2019-05-21T09:04:08.998Z,97155.87
2019-05-21T09:05:11.833Z,97154.81
2019-05-21T09:06:14.796Z,97145.05
2019-05-21T09:07:17.258Z,97150.89
2019-05-21T09:08:20.202Z,97136.16
2019-05-21T09:09:22.992Z,97125.38
2019-05-21T09:10:25.662Z,97130.83
2019-05-21T09:11:28.120Z,97136.58
2019-05-21T09:12:32.072Z,97132.22
2019-05-21T09:13:34.450Z,97140.93
2019-05-21T09:14:36.824Z,97137.90
2019-05-21T09:15:39.400Z,97134.76
2019-05-21T09:16:42.440Z,97139.94
2019-05-21T09:17:45.214Z,97143.45
2019-05-21T09:18:47.262Z,97130.20
2019-05-21T09:19:50.004Z,97135.96
2019-05-21T09:20:52.921Z,97137.05
2019-05-21T09:21:55.245Z,97119.93
2019-05-21T09:22:57.679Z,97119.24
2019-05-21T09:24:00.404Z,97119.64
2019-05-21T09:25:05.123Z,97115.70
2019-05-21T09:26:08.047Z,97111.05
2019-05-21T09:27:09.947Z,97107.80
2019-05-21T09:28:12.487Z,97111.14
2019-05-21T09:29:15.416Z,97104.42
2019-05-21T09:30:18.957Z,97104.23
2019-05-21T09:31:22.197Z,97109.63
2019-05-21T09:32:26.428Z,97104.17
2019-05-21T09:33:29.197Z,97104.23
2019-05-21T09:34:47.492Z,97107.05
2019-05-21T09:35:36.199Z,97098.69
2019-05-21T09:36:38.947Z,97100.52
2019-05-21T09:37:41.696Z,97110.94
2019-05-21T09:38:44.424Z,97101.42
2019-05-21T09:39:46.621Z,97106.03
2019-05-21T09:40:51.641Z,97103.11
2019-05-21T09:41:53.947Z,97102.57
2019-05-21T09:42:56.893Z,97100.72
2019-05-21T09:43:59.467Z,97105.05
2019-05-21T09:45:03.352Z,97096.37
2019-05-21T09:46:07.763Z,97095.23
2019-05-21T09:47:10.356Z,97097.55
2019-05-21T09:48:13.946Z,97092.36
2019-05-21T09:49:16.613Z,97096.94
2019-05-21T09:50:20.444Z,97092.96
2019-05-21T09:51:22.838Z,97092.17
2019-05-21T09:52:25.127Z,97090.55
2019-05-21T09:53:27.444Z,97096.05
2019-05-21T09:54:29.941Z,97108.72
2019-05-21T09:55:33.684Z,97108.27
2019-05-21T09:56:37.204Z,97114.41
2019-05-21T09:57:41.794Z,97127.36
2019-05-21T09:58:45.471Z,97125.84
2019-05-21T09:59:50.220Z,97128.27
2019-05-21T10:01:10.693Z,97131.35
2019-05-21T10:02:21.052Z,97138.47
2019-05-21T10:03:31.709Z,97130.19
2019-05-21T10:04:34.368Z,97121.42
2019-05-21T10:05:37.112Z,97115.39
2019-05-21T10:06:39.768Z,97111.95
2019-05-21T10:07:41.856Z,97110.00
2019-05-21T10:08:44.602Z,97101.21
2019-05-21T10:09:47.992Z,97102.05
2019-05-21T10:10:50.485Z,97103.26
2019-05-21T10:11:53.156Z,97096.87
2019-05-21T10:12:55.858Z,97101.03
2019-05-21T10:13:58.582Z,97096.55
2019-05-21T10:15:01.354Z,97098.21
2019-05-21T10:16:03.587Z,97095.76
2019-05-21T10:17:06.200Z,97099.01
2019-05-21T10:18:08.537Z,97089.91
2019-05-21T10:19:11.715Z,97099.60
2019-05-21T10:20:14.552Z,97093.61
2019-05-21T10:21:16.976Z,97098.39
2019-05-21T10:22:19.248Z,97104.37
2019-05-21T10:23:21.716Z,97105.95
2019-05-21T10:24:26.467Z,97098.86
2019-05-21T10:25:28.989Z,97092.95
2019-05-21T10:26:32.299Z,97091.47
2019-05-21T10:27:35.115Z,97091.97
2019-05-21T10:28:37.400Z,97091.66
2019-05-21T10:29:40.752Z,97091.05
2019-05-21T10:30:43.608Z,97097.96
2019-05-21T10:31:46.123Z,97097.91
2019-05-21T10:32:48.795Z,97093.82
2019-05-21T10:33:50.502Z,97100.45
2019-05-21T10:34:53.305Z,97105.55
2019-05-21T10:35:55.982Z,97109.02
2019-05-21T10:36:58.403Z,97110.23
2019-05-21T10:38:00.945Z,97102.17
2019-05-21T10:39:06.031Z,97100.55
2019-05-21T10:40:09.799Z,97103.39
2019-05-21T10:41:12.811Z,97103.09
2019-05-21T10:42:15.781Z,97111.39
2019-05-21T10:43:20.873Z,97102.33
2019-05-21T10:44:23.803Z,97107.90
2019-05-21T10:45:26.214Z,97103.75
2019-05-21T10:46:28.250Z,97103.20
2019-05-21T10:47:30.995Z,97101.98
2019-05-21T10:48:33.089Z,97102.73
2019-05-21T10:49:35.292Z,97099.89
2019-05-21T10:50:37.660Z,97106.92
2019-05-21T10:51:40.537Z,97099.45
2019-05-21T10:52:44.909Z,97094.50
2019-05-21T10:53:47.617Z,97101.62
2019-05-21T10:54:50.484Z,97088.52
2019-05-21T10:55:53.481Z,97087.86
2019-05-21T10:56:56.249Z,97091.41
2019-05-21T10:57:59.231Z,97100.09
2019-05-21T10:59:03.521Z,97094.12
2019-05-21T11:00:10.939Z,97094.01
2019-05-21T11:01:15.896Z,97101.58
2019-05-21T11:02:20.825Z,97099.98
2019-05-21T11:03:26.749Z,97094.50
2019-05-21T11:04:33.090Z,97095.83
2019-05-21T11:05:37.625Z,97097.08
2019-05-21T11:06:41.837Z,97091.78
2019-05-21T11:07:44.297Z,97092.38
2019-05-21T11:08:46.921Z,97090.10
2019-05-21T11:09:48.656Z,97084.12
2019-05-21T11:10:51.248Z,97082.77
2019-05-21T11:11:55.368Z,97086.52
2019-05-21T11:12:57.841Z,97078.69
2019-05-21T11:14:00.442Z,97083.07
2019-05-21T11:15:06.183Z,97083.58
2019-05-21T11:16:09.355Z,97072.59
2019-05-21T11:17:15.779Z,97072.92
2019-05-21T11:18:17.948Z,97078.41
2019-05-21T11:19:21.119Z,97070.97
2019-05-21T11:20:23.583Z,97070.86
2019-05-21T11:21:27.107Z,97076.14
2019-05-21T11:22:31.938Z,97077.77
2019-05-21T11:23:34.345Z,97072.03
2019-05-21T11:24:37.542Z,97078.31
2019-05-21T11:25:40.220Z,97071.47
2019-05-21T11:26:42.548Z,97077.73
2019-05-21T11:27:47.377Z,97073.06
2019-05-21T11:28:51.223Z,97067.91
2019-05-21T11:29:54.483Z,97065.81
2019-05-21T11:30:57.059Z,97067.96
2019-05-21T11:32:01.227Z,97068.83
2019-05-21T11:33:03.934Z,97062.69
2019-05-21T11:34:05.963Z,97072.52
2019-05-21T11:35:09.645Z,97065.66
2019-05-21T11:36:12.670Z,97064.38
2019-05-21T11:37:15.231Z,97072.82
2019-05-21T11:38:17.939Z,97069.84
2019-05-21T11:39:21.926Z,97070.61
2019-05-21T11:40:26.662Z,97073.20
2019-05-21T11:41:30.372Z,97072.60
2019-05-21T11:42:33.544Z,97062.30
2019-05-21T11:43:35.940Z,97059.25
2019-05-21T11:44:39.583Z,97060.03
2019-05-21T11:45:42.390Z,97061.71
2019-05-21T11:46:45.025Z,97058.55
2019-05-21T11:47:47.813Z,97057.20
2019-05-21T11:48:49.856Z,97056.11
2019-05-21T11:49:52.633Z,97052.01
2019-05-21T11:50:56.194Z,97054.98
2019-05-21T11:51:59.289Z,97051.02
2019-05-21T11:53:03.875Z,97045.49
2019-05-21T11:54:08.312Z,97038.58
2019-05-21T11:55:11.064Z,97042.20
2019-05-21T11:56:14.027Z,97040.91
2019-05-21T11:57:16.825Z,97035.65
2019-05-21T11:58:19.505Z,97038.83
2019-05-21T11:59:22.371Z,97039.05
2019-05-21T12:00:26.818Z,97038.30
2019-05-21T12:01:29.925Z,97035.20
2019-05-21T12:02:32.110Z,97038.83
2019-05-21T12:03:35.869Z,97034.75
2019-05-21T12:04:39.897Z,97038.83
2019-05-21T12:05:44.522Z,97033.84
2019-05-21T12:06:46.876Z,97041.66
2019-05-21T12:07:49.621Z,97034.45
2019-05-21T12:08:57.179Z,97033.78
2019-05-21T12:10:01.049Z,97034.56
2019-05-21T12:11:03.955Z,97025.27
2019-05-21T12:12:06.574Z,97028.75
2019-05-21T12:13:09.545Z,97025.89
2019-05-21T12:14:11.908Z,97028.08
2019-05-21T12:15:15.089Z,97021.86
2019-05-21T12:16:18.526Z,97023.18
2019-05-21T12:17:20.960Z,97025.53
2019-05-21T12:18:23.514Z,97021.64
2019-05-21T12:19:25.176Z,97019.64
2019-05-21T12:20:36.667Z,97020.79
2019-05-21T12:21:32.851Z,97015.90
2019-05-21T12:22:34.806Z,97019.57
2019-05-21T12:23:37.246Z,97023.95
2019-05-21T12:24:39.020Z,97020.36
2019-05-21T12:25:41.509Z,97020.25
2019-05-21T12:26:46.203Z,97015.16
2019-05-21T12:27:49.761Z,97022.27
2019-05-21T12:28:52.922Z,97019.86
2019-05-21T12:29:57.218Z,97021.91
2019-05-21T12:30:59.838Z,97020.16
2019-05-21T12:32:02.728Z,97026.64
2019-05-21T12:33:06.594Z,97018.63
2019-05-21T12:34:11.082Z,97012.00